Time;durP1;ratioP1;P1;durP2;ratioP2;P2;SDS_P1;SDS_P2;PMS_P1;PMS_P2;Temp;Humidity;BMP_temperature;BMP_pressure;BME280_temperature;BME280_humidity;BME280_pressure;Samples;Min_cycle;Max_cycle;Signal;HPM_P1;HPM_P2
2021/01/26 00:00:18;;;;;;;36.30;17.30;;;4.30;60.90;;;;;;5088323;28;20468;-74
2021/01/26 00:02:45;;;;;;;33.83;16.20;;;4.30;61.70;;;;;;5088676;28;20396;-73
2021/01/26 00:05:11;;;;;;;30.20;17.10;;;4.40;62.10;;;;;;5076419;28;20533;-74
2021/01/26 00:07:37;;;;;;;26.83;16.63;;;4.30;62.20;;;;;;5094066;28;20377;-73
2021/01/26 00:10:05;;;;;;;27.50;16.13;;;4.40;61.80;;;;;;5090653;28;20442;-74
2021/01/26 00:12:31;;;;;;;33.30;16.58;;;4.30;62.60;;;;;;5073323;28;20412;-75
2021/01/26 00:14:57;;;;;;;26.53;15.70;;;4.30;62.80;;;;;;5088431;28;20426;-75
2021/01/26 00:17:23;;;;;;;29.40;16.40;;;4.30;65.00;;;;;;5092679;28;20378;-74
2021/01/26 00:19:48;;;;;;;28.30;16.10;;;4.40;63.40;;;;;;5087806;28;20414;-74
2021/01/26 00:22:14;;;;;;;30.43;17.37;;;4.40;61.40;;;;;;5091120;28;20811;-74
2021/01/26 00:24:39;;;;;;;26.57;16.17;;;4.40;63.30;;;;;;5093433;28;20406;-75
2021/01/26 00:27:05;;;;;;;32.20;16.87;;;4.40;62.30;;;;;;5075350;28;20402;-73
2021/01/26 00:29:31;;;;;;;27.60;16.50;;;4.40;63.90;;;;;;5086912;28;20393;-75
2021/01/26 00:31:56;;;;;;;36.35;17.58;;;4.40;64.90;;;;;;5094876;28;20500;-75
2021/01/26 00:34:22;;;;;;;28.17;16.80;;;4.30;65.80;;;;;;5073455;28;20400;-75
2021/01/26 00:36:48;;;;;;;33.80;16.63;;;4.30;66.40;;;;;;5083748;28;20766;-74
2021/01/26 00:39:13;;;;;;;33.00;16.40;;;4.30;67.70;;;;;;5092665;28;20400;-75
2021/01/26 00:41:39;;;;;;;32.38;16.27;;;4.30;68.50;;;;;;5114583;28;20376;-73
2021/01/26 00:44:04;;;;;;;31.92;15.75;;;4.30;68.50;;;;;;5094326;28;20403;-73
2021/01/26 00:46:30;;;;;;;31.25;16.60;;;4.30;69.20;;;;;;5074244;28;20383;-73
2021/01/26 00:48:56;;;;;;;24.43;15.90;;;4.30;69.50;;;;;;5072305;28;20974;-73
2021/01/26 00:51:22;;;;;;;30.73;14.77;;;4.30;69.10;;;;;;5073947;28;20406;-73
2021/01/26 00:53:47;;;;;;;28.70;15.35;;;4.30;68.50;;;;;;5074104;28;20821;-75
2021/01/26 00:56:13;;;;;;;29.00;15.57;;;4.30;69.00;;;;;;5074046;28;20861;-72
2021/01/26 00:58:38;;;;;;;28.20;14.83;;;4.30;69.80;;;;;;5077276;28;20948;-75
2021/01/26 01:01:04;;;;;;;33.07;15.87;;;4.30;70.50;;;;;;5092833;28;20398;-73
2021/01/26 01:03:30;;;;;;;26.48;15.35;;;4.30;70.40;;;;;;5074019;28;20397;-74
2021/01/26 01:05:55;;;;;;;27.33;16.37;;;4.30;70.60;;;;;;5074628;28;20403;-73
2021/01/26 01:08:21;;;;;;;25.50;15.40;;;4.30;70.90;;;;;;5092209;28;20395;-74
2021/01/26 01:10:50;;;;;;;23.50;14.00;;;4.30;70.20;;;;;;5074919;28;20391;-74
2021/01/26 01:13:16;;;;;;;28.48;14.90;;;4.30;69.70;;;;;;5077443;28;20387;-71
2021/01/26 01:15:41;;;;;;;27.53;16.20;;;4.20;71.90;;;;;;5076763;28;20407;-74
2021/01/26 01:18:07;;;;;;;41.33;16.27;;;4.10;73.60;;;;;;5075997;28;20383;-74
2021/01/26 01:20:33;;;;;;;27.70;15.35;;;4.20;74.30;;;;;;5075490;28;20407;-73
2021/01/26 01:22:58;;;;;;;28.53;16.23;;;4.20;74.40;;;;;;5074331;28;20474;-74
2021/01/26 01:25:24;;;;;;;35.33;15.97;;;4.10;74.10;;;;;;5090780;28;20805;-73
2021/01/26 01:27:50;;;;;;;31.37;14.57;;;4.10;73.60;;;;;;5093719;28;20783;-73
2021/01/26 01:30:21;;;;;;;25.00;14.77;;;4.10;73.90;;;;;;5090793;28;20401;-74
2021/01/26 01:32:47;;;;;;;29.15;15.27;;;4.10;74.60;;;;;;5092474;28;20420;-73
2021/01/26 01:35:13;;;;;;;28.00;15.60;;;4.10;73.60;;;;;;5092892;28;20378;-73
2021/01/26 01:37:39;;;;;;;22.92;15.80;;;4.10;74.50;;;;;;5083977;28;20402;-74
2021/01/26 01:40:07;;;;;;;21.03;14.27;;;4.20;73.30;;;;;;5108267;28;20472;-73
2021/01/26 01:42:32;;;;;;;29.60;15.38;;;4.20;72.20;;;;;;5093108;28;20885;-74
2021/01/26 01:44:58;;;;;;;29.00;14.60;;;4.10;73.00;;;;;;5072673;28;20391;-73
2021/01/26 01:47:37;;;;;;;24.13;14.00;;;4.20;73.30;;;;;;5073061;28;20877;-72
2021/01/26 01:50:06;;;;;;;29.08;14.00;;;4.20;72.80;;;;;;5072834;28;20498;-73
2021/01/26 01:52:35;;;;;;;30.58;14.00;;;4.20;72.60;;;;;;5084853;28;20405;-75
2021/01/26 01:55:18;;;;;;;30.88;14.25;;;4.20;73.20;;;;;;5093151;28;20478;-74
2021/01/26 01:57:49;;;;;;;31.92;15.15;;;4.20;74.40;;;;;;5092049;28;20443;-75
2021/01/26 02:00:17;;;;;;;25.10;13.90;;;4.10;75.70;;;;;;5091780;28;20405;-73
2021/01/26 02:02:53;;;;;;;32.20;14.18;;;4.10;76.10;;;;;;5093130;28;20934;-73
2021/01/26 02:05:19;;;;;;;25.08;14.10;;;4.10;75.50;;;;;;5091751;28;20451;-74
2021/01/26 02:07:45;;;;;;;24.30;12.95;;;4.10;75.60;;;;;;5090624;28;20386;-74
2021/01/26 02:10:11;;;;;;;24.83;13.30;;;4.10;74.50;;;;;;5085764;28;20469;-77
2021/01/26 02:12:37;;;;;;;28.30;14.40;;;4.10;75.60;;;;;;5087456;28;20451;-75
2021/01/26 02:15:05;;;;;;;23.92;13.50;;;4.10;75.80;;;;;;5087553;28;20403;-73
2021/01/26 02:17:48;;;;;;;31.25;13.35;;;4.20;74.40;;;;;;5072375;28;20380;-73
2021/01/26 02:20:44;;;;;;;26.23;13.23;;;4.20;74.40;;;;;;5071866;28;20481;-75
2021/01/26 02:23:10;;;;;;;28.92;12.57;;;4.20;73.80;;;;;;5071956;28;20409;-73
2021/01/26 02:25:47;;;;;;;25.60;12.83;;;4.20;73.10;;;;;;5079524;28;20755;-73
2021/01/26 02:28:31;;;;;;;31.65;13.05;;;4.30;73.70;;;;;;5089867;28;20401;-73
2021/01/26 02:31:31;;;;;;;31.50;13.80;;;4.30;73.80;;;;;;5092017;28;20370;-73
2021/01/26 02:34:24;;;;;;;24.52;13.35;;;4.20;75.90;;;;;;5071947;28;20399;-73
2021/01/26 02:37:02;;;;;;;24.90;12.68;;;4.20;75.80;;;;;;5085979;28;20532;-73
2021/01/26 02:39:45;;;;;;;26.48;12.18;;;4.30;75.30;;;;;;5095298;28;20400;-72
2021/01/26 02:42:42;;;;;;;24.40;12.40;;;4.40;73.30;;;;;;5112504;28;20392;-72
2021/01/26 02:45:41;;;;;;;30.48;12.80;;;4.30;73.50;;;;;;5070359;28;20407;-74
2021/01/26 02:48:18;;;;;;;23.77;10.93;;;4.40;73.60;;;;;;5074874;28;20402;-74
2021/01/26 02:51:11;;;;;;;19.48;9.90;;;4.40;73.50;;;;;;5091884;28;20511;-74
2021/01/26 02:54:13;;;;;;;22.40;9.50;;;4.50;71.80;;;;;;5083819;28;20403;-74
2021/01/26 02:56:57;;;;;;;20.00;9.35;;;4.50;71.80;;;;;;5070401;28;20403;-72
2021/01/26 02:59:36;;;;;;;25.23;10.57;;;4.50;72.30;;;;;;5073483;28;20435;-75
2021/01/26 03:02:15;;;;;;;17.20;9.07;;;4.50;72.40;;;;;;5071003;28;20411;-74
2021/01/26 03:04:58;;;;;;;18.67;8.95;;;4.50;70.70;;;;;;5071491;28;20435;-74
2021/01/26 03:07:29;;;;;;;22.33;8.95;;;4.50;71.10;;;;;;5071385;28;20897;-74
2021/01/26 03:10:00;;;;;;;18.60;9.70;;;4.50;71.90;;;;;;5071333;28;20830;-73
2021/01/26 03:12:36;;;;;;;20.30;8.93;;;4.50;71.20;;;;;;5073110;28;20761;-76
2021/01/26 03:15:14;;;;;;;18.95;9.65;;;4.50;71.70;;;;;;5073013;28;20407;-72
2021/01/26 03:18:07;;;;;;;17.17;8.37;;;4.40;75.50;;;;;;5073549;28;20880;-72
2021/01/26 03:20:37;;;;;;;20.40;9.70;;;4.40;74.00;;;;;;5070258;28;20392;-71
2021/01/26 03:23:08;;;;;;;25.90;10.40;;;4.30;75.50;;;;;;5072388;28;20833;-72
2021/01/26 03:25:39;;;;;;;17.87;10.23;;;4.20;77.20;;;;;;5072397;28;20396;-72
2021/01/26 03:28:07;;;;;;;23.80;10.20;;;4.20;77.80;;;;;;5078299;28;20863;-71
2021/01/26 03:30:37;;;;;;;21.08;10.63;;;4.20;77.70;;;;;;5074972;28;20445;-72
2021/01/26 03:33:11;;;;;;;19.97;10.17;;;4.20;77.70;;;;;;5077404;28;20394;-72
2021/01/26 03:35:37;;;;;;;23.33;10.40;;;4.30;76.60;;;;;;5088455;28;20773;-71
2021/01/26 03:38:15;;;;;;;18.70;9.82;;;4.30;76.00;;;;;;5072164;28;20402;-71
2021/01/26 03:40:41;;;;;;;21.05;9.80;;;4.30;76.60;;;;;;5111076;28;20862;-71
2021/01/26 03:43:07;;;;;;;29.50;10.80;;;4.30;76.80;;;;;;5071563;28;20427;-70
2021/01/26 03:45:32;;;;;;;23.20;9.73;;;4.30;77.30;;;;;;5072296;28;20403;-71
2021/01/26 03:48:15;;;;;;;21.70;9.80;;;4.40;74.40;;;;;;5091388;28;20847;-73
2021/01/26 03:50:50;;;;;;;27.00;9.30;;;4.50;73.80;;;;;;5091754;28;20381;-72
2021/01/26 03:53:44;;;;;;;21.92;7.70;;;4.50;72.50;;;;;;5085190;28;20873;-71
2021/01/26 03:56:33;;;;;;;17.40;7.70;;;4.60;71.00;;;;;;5072268;28;20395;-72
2021/01/26 03:59:22;;;;;;;15.27;7.32;;;4.60;72.30;;;;;;5043857;28;20407;-71
2021/01/26 04:02:19;;;;;;;19.35;6.72;;;4.60;72.30;;;;;;5091141;28;20394;-71
2021/01/26 04:05:01;;;;;;;10.25;4.53;;;4.70;72.70;;;;;;5088860;28;20886;-71
2021/01/26 04:07:33;;;;;;;8.38;3.40;;;4.40;81.80;;;;;;5070472;28;20383;-72
2021/01/26 04:10:09;;;;;;;6.28;4.10;;;3.50;94.80;;;;;;5069679;28;20407;-71
2021/01/26 04:12:39;;;;;;;9.73;3.90;;;3.10;99.90;;;;;;5070404;28;20383;-71
2021/01/26 04:15:18;;;;;;;19.42;7.50;;;3.00;99.90;;;;;;5070137;28;20493;-71
2021/01/26 04:17:47;;;;;;;19.52;6.70;;;3.10;99.90;;;;;;5070281;28;20379;-72
2021/01/26 04:20:36;;;;;;;16.13;8.00;;;3.10;99.90;;;;;;5069686;28;20403;-70
2021/01/26 04:23:03;;;;;;;17.88;9.60;;;3.20;99.90;;;;;;5070016;28;20402;-71
2021/01/26 04:25:33;;;;;;;27.48;12.32;;;3.20;99.90;;;;;;5072852;28;20394;-73
2021/01/26 04:28:01;;;;;;;32.20;14.57;;;3.20;99.90;;;;;;5072906;28;20382;-71
2021/01/26 04:30:26;;;;;;;46.57;16.27;;;3.30;99.90;;;;;;5084824;28;20482;-71
2021/01/26 04:33:04;;;;;;;30.90;13.40;;;3.40;99.90;;;;;;5070099;28;20471;-71
2021/01/26 04:35:30;;;;;;;35.30;12.48;;;3.50;99.90;;;;;;5070297;28;20408;-71
2021/01/26 04:37:56;;;;;;;28.85;12.73;;;3.40;99.90;;;;;;5077904;28;20897;-72
2021/01/26 04:40:24;;;;;;;26.45;11.43;;;3.40;99.90;;;;;;5100005;28;20403;-72
2021/01/26 04:43:13;;;;;;;29.87;11.00;;;3.40;99.90;;;;;;5090220;28;20561;-72
2021/01/26 04:46:07;;;;;;;27.98;11.73;;;3.40;99.90;;;;;;5084826;28;20439;-73
2021/01/26 04:48:51;;;;;;;26.45;10.68;;;3.50;99.90;;;;;;5070009;28;20390;-72
2021/01/26 04:51:22;;;;;;;18.27;10.60;;;3.40;99.90;;;;;;5069603;28;20439;-71
2021/01/26 04:54:16;;;;;;;19.77;10.25;;;3.30;99.90;;;;;;5070340;28;20387;-71
2021/01/26 04:57:12;;;;;;;24.43;9.00;;;3.30;99.90;;;;;;5070255;28;20402;-72
2021/01/26 04:59:50;;;;;;;28.58;10.27;;;3.20;99.90;;;;;;5069667;28;20403;-71
2021/01/26 05:02:34;;;;;;;26.85;9.82;;;3.10;99.90;;;;;;5069608;28;20398;-71
2021/01/26 05:05:06;;;;;;;33.10;10.10;;;3.10;99.90;;;;;;5068665;28;20834;-71
2021/01/26 05:07:40;;;;;;;22.80;10.48;;;3.10;99.90;;;;;;5083059;28;20401;-70
2021/01/26 05:10:10;;;;;;;31.70;11.23;;;3.10;99.90;;;;;;5089859;28;20382;-71
2021/01/26 05:12:43;;;;;;;22.10;10.40;;;3.00;99.90;;;;;;5088606;28;20402;-71
2021/01/26 05:15:16;;;;;;;29.48;10.93;;;3.00;99.90;;;;;;5088257;28;20382;-71
2021/01/26 05:17:47;;;;;;;24.60;11.05;;;3.00;99.90;;;;;;5087492;28;20402;-72
2021/01/26 05:20:19;;;;;;;25.90;11.50;;;3.10;99.90;;;;;;5072214;28;20411;-72
2021/01/26 05:23:19;;;;;;;28.98;10.93;;;3.10;99.90;;;;;;5069855;28;20463;-71
2021/01/26 05:25:46;;;;;;;32.88;10.98;;;3.30;99.90;;;;;;5067495;28;20476;-73
2021/01/26 05:28:12;;;;;;;23.52;10.88;;;3.40;99.90;;;;;;5077488;28;20743;-71
2021/01/26 05:30:38;;;;;;;18.98;9.60;;;3.40;99.90;;;;;;5089435;28;20404;-71
2021/01/26 05:33:12;;;;;;;27.13;11.13;;;3.40;99.90;;;;;;5073036;28;20399;-71
2021/01/26 05:35:41;;;;;;;27.52;9.30;;;3.50;99.90;;;;;;5083541;28;20908;-72
2021/01/26 05:38:07;;;;;;;22.73;9.23;;;3.60;99.90;;;;;;5073017;28;20450;-72
2021/01/26 05:40:39;;;;;;;31.27;10.70;;;3.60;99.90;;;;;;5095328;28;20414;-72
2021/01/26 05:43:07;;;;;;;32.60;9.70;;;3.70;99.90;;;;;;5093138;28;20382;-71
2021/01/26 05:45:39;;;;;;;27.70;9.52;;;3.70;99.90;;;;;;5077306;28;20403;-71
2021/01/26 05:48:14;;;;;;;30.57;8.20;;;3.70;99.90;;;;;;5075105;28;20475;-71
2021/01/26 05:50:41;;;;;;;21.65;8.65;;;3.70;99.90;;;;;;5072738;28;20399;-70
2021/01/26 05:53:30;;;;;;;21.33;8.17;;;3.70;99.20;;;;;;5071459;28;20480;-72
2021/01/26 05:56:12;;;;;;;23.95;8.27;;;3.70;98.00;;;;;;5089691;28;20401;-71
2021/01/26 05:58:40;;;;;;;25.17;9.13;;;3.70;97.20;;;;;;5091415;28;20543;-71
2021/01/26 06:01:30;;;;;;;26.38;9.10;;;3.70;97.10;;;;;;5076261;28;20410;-71
2021/01/26 06:04:09;;;;;;;26.85;9.30;;;3.80;95.40;;;;;;5067088;28;20404;-71
2021/01/26 06:06:48;;;;;;;25.67;8.33;;;3.90;93.70;;;;;;5071384;28;20422;-72
2021/01/26 06:09:42;;;;;;;32.83;11.95;;;3.90;92.00;;;;;;5070407;28;20384;-71
2021/01/26 06:12:23;;;;;;;31.77;9.95;;;3.90;92.50;;;;;;5084318;28;20732;-70
2021/01/26 06:14:54;;;;;;;24.60;8.88;;;3.90;89.20;;;;;;5083941;28;20395;-71
2021/01/26 06:17:23;;;;;;;21.30;7.85;;;4.00;88.20;;;;;;5072315;28;20493;-72
2021/01/26 06:20:13;;;;;;;21.40;8.40;;;4.00;87.50;;;;;;5072336;28;20488;-72
2021/01/26 06:22:39;;;;;;;15.98;7.50;;;4.10;87.90;;;;;;5072459;28;20395;-71
2021/01/26 06:25:22;;;;;;;18.53;7.50;;;4.10;86.60;;;;;;5072123;28;20376;-71
2021/01/26 06:27:56;;;;;;;19.95;8.23;;;4.10;85.80;;;;;;5084722;28;20402;-72
2021/01/26 06:31:06;;;;;;;23.95;8.60;;;4.10;86.30;;;;;;5090630;28;20481;-72
2021/01/26 06:33:52;;;;;;;16.80;7.47;;;4.20;86.20;;;;;;5077248;28;20443;-71
2021/01/26 06:36:45;;;;;;;20.85;8.35;;;4.20;83.00;;;;;;5071338;28;20411;-71
2021/01/26 06:39:36;;;;;;;18.27;7.82;;;4.20;83.80;;;;;;5083879;28;20407;-72
2021/01/26 06:42:18;;;;;;;19.70;8.48;;;4.20;82.50;;;;;;5071339;28;20415;-72
2021/01/26 06:44:49;;;;;;;22.40;8.18;;;4.20;83.10;;;;;;5071170;28;20423;-71
2021/01/26 06:47:33;;;;;;;26.77;8.73;;;4.30;81.50;;;;;;5072662;28;20529;-73
2021/01/26 06:50:09;;;;;;;21.08;7.28;;;4.30;82.70;;;;;;5076051;28;20876;-73
2021/01/26 06:52:56;;;;;;;21.70;8.90;;;4.30;83.00;;;;;;5091860;28;20404;-72
2021/01/26 06:55:34;;;;;;;19.27;7.70;;;4.10;83.90;;;;;;5090636;28;20502;-73
2021/01/26 06:58:21;;;;;;;18.35;8.43;;;4.20;83.10;;;;;;5071606;28;20408;-72
2021/01/26 07:01:24;;;;;;;21.42;7.80;;;4.20;84.70;;;;;;5070854;28;20380;-72
2021/01/26 07:04:27;;;;;;;30.35;8.63;;;4.20;83.50;;;;;;5070683;28;20403;-71
2021/01/26 07:07:11;;;;;;;25.90;8.50;;;4.20;82.90;;;;;;5069832;28;20478;-71
2021/01/26 07:09:55;;;;;;;18.57;7.90;;;4.20;82.60;;;;;;5070138;28;20387;-73
2021/01/26 07:12:33;;;;;;;18.20;8.07;;;4.20;82.50;;;;;;5070886;28;20392;-73
2021/01/26 07:15:08;;;;;;;23.50;8.43;;;4.20;83.90;;;;;;5070952;28;20382;-72
2021/01/26 07:18:14;;;;;;;18.10;7.80;;;4.20;83.50;;;;;;5070426;28;20411;-74
2021/01/26 07:20:44;;;;;;;19.48;8.73;;;4.20;81.90;;;;;;5020952;28;20453;-73
2021/01/26 07:23:22;;;;;;;16.80;8.02;;;4.20;80.80;;;;;;5085504;28;20499;-72
2021/01/26 07:26:16;;;;;;;22.53;8.67;;;4.20;80.20;;;;;;5074488;28;20518;-71
2021/01/26 07:29:00;;;;;;;14.02;8.32;;;4.20;80.60;;;;;;5073009;28;20859;-71
2021/01/26 07:31:32;;;;;;;18.93;8.33;;;4.20;81.90;;;;;;5089486;28;20399;-71
2021/01/26 07:34:10;;;;;;;22.45;9.85;;;4.20;80.90;;;;;;5091093;28;20392;-71
2021/01/26 07:36:41;;;;;;;20.33;9.15;;;4.30;81.70;;;;;;5089193;28;20486;-71
2021/01/26 07:39:09;;;;;;;19.42;8.27;;;4.20;82.30;;;;;;5086256;28;20482;-73
2021/01/26 07:41:51;;;;;;;19.60;8.93;;;4.30;82.70;;;;;;5070230;28;20901;-72
2021/01/26 07:44:38;;;;;;;22.10;9.52;;;4.30;81.60;;;;;;5077027;28;20402;-71
2021/01/26 07:47:08;;;;;;;20.52;8.65;;;4.30;83.00;;;;;;5089371;28;20651;-72
2021/01/26 07:50:05;;;;;;;18.42;8.00;;;4.30;82.80;;;;;;5086761;28;20402;-71
2021/01/26 07:52:35;;;;;;;20.38;8.75;;;4.30;82.30;;;;;;5089136;28;20394;-71
2021/01/26 07:55:29;;;;;;;18.13;9.13;;;4.30;82.60;;;;;;5073814;28;20475;-71
2021/01/26 07:58:00;;;;;;;23.15;8.98;;;4.30;82.00;;;;;;5067249;28;20436;-72
2021/01/26 08:00:29;;;;;;;25.98;9.45;;;4.20;84.20;;;;;;5069740;28;20407;-72
2021/01/26 08:02:59;;;;;;;30.03;10.20;;;4.30;85.10;;;;;;5069458;28;20580;-72
2021/01/26 08:05:40;;;;;;;25.85;9.50;;;4.30;84.90;;;;;;5087282;28;20401;-73
2021/01/26 08:08:08;;;;;;;27.77;9.35;;;4.30;85.00;;;;;;5080365;28;20533;-72
2021/01/26 08:10:35;;;;;;;22.13;8.50;;;4.50;83.20;;;;;;5068433;28;20400;-73
2021/01/26 08:13:02;;;;;;;21.73;8.70;;;4.60;81.50;;;;;;5069775;28;20380;-73
2021/01/26 08:15:34;;;;;;;25.77;8.77;;;4.50;81.00;;;;;;5085986;28;20393;-71
2021/01/26 08:18:22;;;;;;;18.10;7.03;;;4.50;80.90;;;;;;5094083;28;20386;-73
2021/01/26 08:20:48;;;;;;;15.48;6.50;;;4.50;81.30;;;;;;5077506;28;20449;-73
2021/01/26 08:23:24;;;;;;;31.17;10.70;;;4.30;83.60;;;;;;5076871;28;20383;-73
2021/01/26 08:25:53;;;;;;;31.48;11.52;;;4.20;89.80;;;;;;5077267;28;20387;-72
2021/01/26 08:28:40;;;;;;;26.50;10.82;;;4.20;91.80;;;;;;5081147;28;20386;-73
2021/01/26 08:31:27;;;;;;;22.08;9.00;;;4.30;94.00;;;;;;5089905;28;20455;-74
2021/01/26 08:33:55;;;;;;;22.30;8.30;;;4.30;92.30;;;;;;5070074;28;20372;-72
2021/01/26 08:36:27;;;;;;;22.70;9.18;;;4.30;91.00;;;;;;5080264;28;20399;-74
2021/01/26 08:38:52;;;;;;;28.02;9.95;;;4.30;89.60;;;;;;5078206;28;20407;-72
2021/01/26 08:41:42;;;;;;;19.02;8.50;;;4.30;89.40;;;;;;5108170;28;20380;-72
2021/01/26 08:44:22;;;;;;;17.38;8.15;;;4.30;87.80;;;;;;5069109;28;20422;-71
2021/01/26 08:46:49;;;;;;;11.57;7.63;;;4.30;87.90;;;;;;5071300;28;20422;-72
2021/01/26 08:49:31;;;;;;;18.55;8.60;;;4.30;87.80;;;;;;5089520;28;20446;-72
2021/01/26 08:52:19;;;;;;;19.75;8.75;;;4.30;89.20;;;;;;5075197;28;20399;-71
2021/01/26 08:54:45;;;;;;;17.05;8.48;;;4.30;87.20;;;;;;5071329;28;20414;-72
2021/01/26 08:57:26;;;;;;;27.65;9.40;;;4.30;85.50;;;;;;5089520;28;20747;-72
2021/01/26 08:59:52;;;;;;;30.17;11.93;;;4.30;89.00;;;;;;5087593;28;20409;-72
2021/01/26 09:02:34;;;;;;;19.25;10.75;;;4.40;86.70;;;;;;5092399;28;20447;-71
2021/01/26 09:05:00;;;;;;;24.60;11.35;;;4.60;83.80;;;;;;5091575;28;20393;-71
2021/01/26 09:07:50;;;;;;;24.75;11.40;;;4.40;85.60;;;;;;5073035;28;20467;-71
2021/01/26 09:10:39;;;;;;;20.98;10.40;;;4.40;84.50;;;;;;5079476;28;20423;-71
2021/01/26 09:13:13;;;;;;;27.83;10.13;;;4.50;85.90;;;;;;5093605;28;20412;-72
2021/01/26 09:15:47;;;;;;;17.55;9.40;;;4.50;87.00;;;;;;5091615;28;20420;-72
2021/01/26 09:18:16;;;;;;;17.02;8.70;;;4.50;83.90;;;;;;5091158;28;20417;-72
2021/01/26 09:20:43;;;;;;;23.98;9.23;;;4.60;83.70;;;;;;5090357;28;20429;-72
2021/01/26 09:23:09;;;;;;;17.08;9.02;;;4.80;80.30;;;;;;5078914;28;20431;-73
2021/01/26 09:25:43;;;;;;;18.80;8.60;;;4.80;79.20;;;;;;5075917;28;20470;-72
2021/01/26 09:28:11;;;;;;;19.55;10.60;;;4.80;79.00;;;;;;5080745;28;20394;-71
2021/01/26 09:30:39;;;;;;;19.53;8.97;;;4.80;79.70;;;;;;5094536;28;20427;-73
2021/01/26 09:33:05;;;;;;;20.05;8.75;;;5.00;79.10;;;;;;5076154;28;20963;-72
2021/01/26 09:35:40;;;;;;;20.23;8.10;;;5.10;76.10;;;;;;5080712;28;20506;-72
2021/01/26 09:38:21;;;;;;;17.90;7.93;;;5.10;76.70;;;;;;5095204;28;20928;-72
2021/01/26 09:40:55;;;;;;;14.97;7.97;;;5.20;75.90;;;;;;5075779;28;20372;-73
2021/01/26 09:43:22;;;;;;;22.85;8.23;;;5.10;74.50;;;;;;5093202;28;20390;-73
2021/01/26 09:45:57;;;;;;;18.85;7.50;;;5.10;75.70;;;;;;5093120;28;20782;-74
2021/01/26 09:48:42;;;;;;;17.88;6.78;;;5.20;71.90;;;;;;5081670;28;20899;-73
2021/01/26 09:51:40;;;;;;;14.07;7.72;;;5.20;71.70;;;;;;5086297;28;20412;-71
2021/01/26 09:54:15;;;;;;;13.30;6.80;;;5.10;73.20;;;;;;5087197;28;20410;-71
2021/01/26 09:56:41;;;;;;;10.95;6.90;;;5.00;72.90;;;;;;5098555;28;20378;-74
2021/01/26 09:59:10;;;;;;;19.00;7.65;;;5.00;72.40;;;;;;5074561;28;20400;-73
2021/01/26 10:01:38;;;;;;;17.88;7.07;;;4.90;73.50;;;;;;5073428;28;20425;-73
2021/01/26 10:04:06;;;;;;;19.40;7.40;;;5.00;74.60;;;;;;5088708;28;20460;-71
2021/01/26 10:06:33;;;;;;;15.85;7.65;;;5.10;72.70;;;;;;5083331;28;20390;-74
2021/01/26 10:09:33;;;;;;;18.15;6.20;;;5.20;72.60;;;;;;5091389;28;20410;-73
2021/01/26 10:12:28;;;;;;;11.38;6.63;;;5.20;72.50;;;;;;5053318;28;20411;-72
2021/01/26 10:15:23;;;;;;;15.27;6.75;;;5.20;72.90;;;;;;5072618;28;20467;-74
2021/01/26 10:17:56;;;;;;;14.45;7.40;;;5.20;73.00;;;;;;5080410;28;20421;-74
2021/01/26 10:20:25;;;;;;;15.40;7.40;;;5.20;72.90;;;;;;5084669;28;20407;-70
2021/01/26 10:23:02;;;;;;;16.48;7.80;;;5.30;74.70;;;;;;5072288;28;20915;-71
2021/01/26 10:25:27;;;;;;;17.10;7.82;;;5.30;73.70;;;;;;5071986;28;20379;-71
2021/01/26 10:28:03;;;;;;;17.73;8.00;;;5.20;71.70;;;;;;5080212;28;20431;-71
2021/01/26 10:30:29;;;;;;;13.20;7.20;;;5.20;72.50;;;;;;5092008;28;20420;-71
2021/01/26 10:32:54;;;;;;;20.80;8.43;;;5.10;73.20;;;;;;5090268;28;20430;-72
2021/01/26 10:35:32;;;;;;;16.07;8.00;;;5.10;74.40;;;;;;5077052;28;20475;-71
2021/01/26 10:38:31;;;;;;;15.55;7.65;;;5.30;73.50;;;;;;5085759;28;20406;-70
2021/01/26 10:41:26;;;;;;;15.52;8.10;;;5.40;71.20;;;;;;5071019;28;20490;-71
2021/01/26 10:44:04;;;;;;;17.63;7.28;;;5.40;70.80;;;;;;5058777;28;20388;-71
2021/01/26 10:46:36;;;;;;;16.77;8.20;;;5.50;70.20;;;;;;5075051;28;20402;-70
2021/01/26 10:49:34;;;;;;;19.02;8.57;;;5.50;70.10;;;;;;5087152;28;20398;-70
2021/01/26 10:52:01;;;;;;;18.17;8.43;;;5.50;70.80;;;;;;5079022;28;20409;-70
2021/01/26 10:54:27;;;;;;;15.55;8.00;;;5.60;71.20;;;;;;5090053;28;20433;-70
2021/01/26 10:56:53;;;;;;;17.20;8.27;;;5.60;70.40;;;;;;5091654;28;20461;-71
2021/01/26 10:59:19;;;;;;;14.87;8.47;;;5.70;70.00;;;;;;5089964;28;20832;-71
2021/01/26 11:01:45;;;;;;;15.32;8.68;;;5.70;70.10;;;;;;5074241;28;20491;-72
2021/01/26 11:04:12;;;;;;;17.77;8.00;;;5.70;69.00;;;;;;5071036;28;20402;-73
2021/01/26 11:06:37;;;;;;;12.60;8.50;;;5.70;68.70;;;;;;5071152;28;20407;-71
2021/01/26 11:09:08;;;;;;;19.47;9.00;;;5.70;68.80;;;;;;5081910;28;20459;-72
2021/01/26 11:11:34;;;;;;;15.73;7.85;;;5.70;69.60;;;;;;5091392;28;20382;-73
2021/01/26 11:14:02;;;;;;;20.77;8.60;;;5.80;68.70;;;;;;5087301;28;20402;-71
2021/01/26 11:16:28;;;;;;;14.30;7.78;;;5.80;69.20;;;;;;5076902;28;20424;-72
2021/01/26 11:18:54;;;;;;;12.60;8.50;;;5.90;68.70;;;;;;5079629;28;20406;-72
2021/01/26 11:21:21;;;;;;;20.13;8.07;;;6.00;66.40;;;;;;5072695;28;20456;-73
2021/01/26 11:23:47;;;;;;;14.13;7.77;;;6.10;64.20;;;;;;5070440;28;20395;-72
2021/01/26 11:26:17;;;;;;;14.13;8.32;;;6.20;62.30;;;;;;5072484;28;20465;-72
2021/01/26 11:28:44;;;;;;;14.85;8.07;;;6.40;63.00;;;;;;5078011;28;20406;-74
2021/01/26 11:31:10;;;;;;;13.73;8.50;;;6.30;62.30;;;;;;5077003;28;20467;-73
2021/01/26 11:33:37;;;;;;;17.77;8.45;;;6.40;62.00;;;;;;5090722;28;20382;-71
2021/01/26 11:36:04;;;;;;;21.65;8.35;;;6.40;62.00;;;;;;5088043;28;20429;-73
2021/01/26 11:38:30;;;;;;;13.80;8.10;;;6.50;63.70;;;;;;5085592;28;20407;-72
2021/01/26 11:40:56;;;;;;;16.55;9.38;;;6.40;61.90;;;;;;5107110;28;20406;-73
2021/01/26 11:43:23;;;;;;;16.65;8.65;;;6.40;61.90;;;;;;5089695;28;20386;-72
2021/01/26 11:45:49;;;;;;;18.33;9.05;;;6.20;64.60;;;;;;5072878;28;20401;-74
2021/01/26 11:48:15;;;;;;;13.25;9.40;;;6.10;64.60;;;;;;5090936;28;20378;-72
2021/01/26 11:50:41;;;;;;;13.55;7.60;;;6.00;66.70;;;;;;5088436;28;20471;-71
2021/01/26 11:53:09;;;;;;;17.43;9.00;;;6.00;65.60;;;;;;5090535;28;20390;-72
2021/01/26 11:55:35;;;;;;;17.20;10.18;;;6.10;65.60;;;;;;5089253;28;20716;-72
2021/01/26 11:58:02;;;;;;;14.90;9.02;;;6.10;66.70;;;;;;5068181;28;20395;-73
2021/01/26 12:00:31;;;;;;;23.02;9.02;;;6.30;64.60;;;;;;5069780;28;20400;-72
2021/01/26 12:02:57;;;;;;;12.93;7.55;;;6.40;63.10;;;;;;5085020;28;20402;-73
2021/01/26 12:05:29;;;;;;;19.98;8.30;;;6.40;60.50;;;;;;5089906;28;20374;-72
2021/01/26 12:07:56;;;;;;;18.65;8.75;;;6.40;63.20;;;;;;5084609;28;20490;-72
2021/01/26 12:10:22;;;;;;;15.20;8.45;;;6.40;63.50;;;;;;5078420;28;20743;-71
2021/01/26 12:12:48;;;;;;;15.80;7.80;;;6.40;61.60;;;;;;5090114;28;20386;-73
2021/01/26 12:15:18;;;;;;;18.13;7.87;;;6.40;61.70;;;;;;5088281;28;20393;-72
2021/01/26 12:17:44;;;;;;;15.18;7.70;;;6.40;60.80;;;;;;5074762;28;20464;-73
2021/01/26 12:20:10;;;;;;;17.63;8.70;;;6.40;60.80;;;;;;5068519;28;20486;-72
2021/01/26 12:22:36;;;;;;;23.02;8.20;;;6.40;61.50;;;;;;5077521;28;20802;-73
2021/01/26 12:25:01;;;;;;;12.60;7.53;;;6.60;61.00;;;;;;5086415;28;20392;-71
2021/01/26 12:27:27;;;;;;;17.95;8.20;;;6.60;60.10;;;;;;5069063;28;20881;-72
2021/01/26 12:29:53;;;;;;;13.80;8.63;;;6.70;58.70;;;;;;5088194;28;20385;-72
2021/01/26 12:32:18;;;;;;;16.75;7.10;;;6.80;58.50;;;;;;5087922;28;20809;-72
2021/01/26 12:34:44;;;;;;;17.85;7.00;;;6.90;57.00;;;;;;5090165;28;20386;-72
2021/01/26 12:37:09;;;;;;;15.88;6.70;;;6.90;56.00;;;;;;5083219;28;20406;-72
2021/01/26 12:39:35;;;;;;;14.07;8.20;;;6.90;56.80;;;;;;5095979;28;20404;-72
2021/01/26 12:42:01;;;;;;;15.00;6.70;;;7.00;56.70;;;;;;5096150;28;20508;-73
2021/01/26 12:44:26;;;;;;;17.05;7.85;;;7.00;55.80;;;;;;5091369;28;20397;-72
2021/01/26 12:46:53;;;;;;;17.55;6.90;;;6.90;56.80;;;;;;5092081;28;20398;-72
2021/01/26 12:49:20;;;;;;;12.93;6.60;;;7.00;56.20;;;;;;5093457;28;20438;-73
2021/01/26 12:51:45;;;;;;;13.48;6.65;;;7.00;55.00;;;;;;5090095;28;20395;-73
2021/01/26 12:54:11;;;;;;;14.10;6.70;;;7.10;55.40;;;;;;5080149;28;20396;-73
2021/01/26 12:56:36;;;;;;;17.40;7.07;;;7.30;55.90;;;;;;5094122;28;20886;-74
2021/01/26 12:59:02;;;;;;;14.57;7.23;;;7.40;54.00;;;;;;5095709;28;20546;-75
2021/01/26 13:01:28;;;;;;;13.38;7.45;;;7.50;54.30;;;;;;5088795;28;20392;-74
2021/01/26 13:03:53;;;;;;;17.48;8.15;;;7.40;53.00;;;;;;5074585;28;20384;-72
2021/01/26 13:06:19;;;;;;;13.25;7.10;;;7.60;52.20;;;;;;5077338;28;20402;-73
2021/01/26 13:08:45;;;;;;;14.07;6.50;;;7.50;53.30;;;;;;5072911;28;20767;-72
2021/01/26 13:11:11;;;;;;;17.60;7.97;;;7.50;52.60;;;;;;5085729;28;20412;-72
2021/01/26 13:13:37;;;;;;;21.65;7.45;;;7.30;53.30;;;;;;5092762;28;20489;-72
2021/01/26 13:16:03;;;;;;;14.87;6.80;;;7.30;55.30;;;;;;5093642;28;20485;-72